createdAt,value
2019-01-13T00:01:54.646Z,6.56
2019-01-13T00:04:22.679Z,6.56
2019-01-13T00:06:50.793Z,6.55
2019-01-13T00:09:18.858Z,6.53
2019-01-13T00:11:46.835Z,6.50
2019-01-13T00:14:14.955Z,6.50
2019-01-13T00:16:42.960Z,6.50
2019-01-13T00:19:11.000Z,6.48
2019-01-13T00:21:39.008Z,6.49
2019-01-13T00:24:07.233Z,6.48
2019-01-13T00:26:35.241Z,6.47
2019-01-13T00:29:03.686Z,6.47
2019-01-13T00:31:31.755Z,6.47
2019-01-13T00:33:59.793Z,6.47
2019-01-13T00:36:28.870Z,6.51
2019-01-13T00:38:57.788Z,6.50
2019-01-13T00:41:25.800Z,6.51
2019-01-13T00:43:53.956Z,6.50
2019-01-13T00:46:21.938Z,6.51
2019-01-13T00:48:50.044Z,6.52
2019-01-13T00:51:18.206Z,6.53
2019-01-13T00:53:46.234Z,6.54
2019-01-13T00:56:14.222Z,6.56
2019-01-13T00:58:42.229Z,6.55
2019-01-13T01:01:10.522Z,6.55
2019-01-13T01:03:38.875Z,6.57
2019-01-13T01:06:06.872Z,6.57
2019-01-13T01:08:35.999Z,6.58
2019-01-13T01:11:04.062Z,6.61
2019-01-13T01:13:32.394Z,6.61
2019-01-13T01:16:00.776Z,6.61
2019-01-13T01:18:28.793Z,6.62
2019-01-13T01:20:57.476Z,6.61
2019-01-13T01:23:25.465Z,6.62
2019-01-13T01:25:53.465Z,6.64
2019-01-13T01:28:21.486Z,6.66
2019-01-13T01:30:49.807Z,6.65
2019-01-13T01:33:25.720Z,6.66
2019-01-13T01:35:48.228Z,6.67
2019-01-13T01:38:16.220Z,6.68
2019-01-13T01:40:44.276Z,6.72
2019-01-13T01:43:12.290Z,6.72
2019-01-13T01:45:40.306Z,6.69
2019-01-13T01:48:08.354Z,6.72
2019-01-13T01:50:36.422Z,6.73
2019-01-13T01:53:04.568Z,6.74
2019-01-13T01:55:32.679Z,6.77
2019-01-13T01:58:00.747Z,6.75
2019-01-13T02:00:28.750Z,6.77
2019-01-13T02:02:57.358Z,6.77
2019-01-13T02:05:25.379Z,6.77
2019-01-13T02:07:53.372Z,6.76
2019-01-13T02:10:22.448Z,6.76
2019-01-13T02:12:51.125Z,6.78
2019-01-13T02:15:23.480Z,6.78
2019-01-13T02:17:51.640Z,6.80
2019-01-13T02:20:19.835Z,6.81
2019-01-13T02:22:47.919Z,6.85
2019-01-13T02:25:22.326Z,6.86
2019-01-13T02:27:50.297Z,6.86
2019-01-13T02:30:20.203Z,6.88
2019-01-13T02:32:48.178Z,6.91
2019-01-13T02:35:16.149Z,6.91
2019-01-13T02:37:44.142Z,6.91
2019-01-13T02:40:15.396Z,6.93
2019-01-13T02:42:43.461Z,6.95
2019-01-13T02:45:26.641Z,6.97
2019-01-13T02:47:54.607Z,6.99
2019-01-13T02:50:22.613Z,6.99
2019-01-13T02:52:50.561Z,6.98
2019-01-13T02:55:18.538Z,7.00
2019-01-13T02:57:47.517Z,7.04
2019-01-13T03:00:21.586Z,7.07
2019-01-13T03:02:49.554Z,7.10
2019-01-13T03:05:17.785Z,7.11
2019-01-13T03:07:46.124Z,7.14
2019-01-13T03:10:17.430Z,7.18
2019-01-13T03:12:45.412Z,7.19
2019-01-13T03:15:19.377Z,7.19
2019-01-13T03:17:47.531Z,7.21
2019-01-13T03:20:15.491Z,7.23
2019-01-13T03:22:43.807Z,7.23
2019-01-13T03:25:15.394Z,7.24
2019-01-13T03:27:43.590Z,7.25
2019-01-13T03:30:17.179Z,7.27
2019-01-13T03:32:45.166Z,7.29
2019-01-13T03:35:14.816Z,7.28
2019-01-13T03:37:42.979Z,7.30
2019-01-13T03:40:25.527Z,7.31
2019-01-13T03:42:54.496Z,7.33
2019-01-13T03:45:24.263Z,7.36
2019-01-13T03:47:52.238Z,7.37
2019-01-13T03:50:22.539Z,7.38
2019-01-13T03:52:53.275Z,7.38
2019-01-13T03:55:23.305Z,7.41
2019-01-13T03:57:51.408Z,7.43
2019-01-13T04:00:22.434Z,7.43
2019-01-13T04:02:50.675Z,7.43
2019-01-13T04:05:19.004Z,7.45
2019-01-13T04:07:47.768Z,7.47
2019-01-13T04:10:16.730Z,7.47
2019-01-13T04:12:45.016Z,7.50
2019-01-13T04:16:00.769Z,7.49
2019-01-13T04:18:28.764Z,7.45
2019-01-13T04:20:56.769Z,7.43
2019-01-13T04:23:24.737Z,7.42
2019-01-13T04:25:52.781Z,7.42
2019-01-13T04:28:20.858Z,7.41
2019-01-13T04:30:48.894Z,7.45
2019-01-13T04:33:16.856Z,7.46
2019-01-13T04:35:44.891Z,7.47
2019-01-13T04:38:12.909Z,7.47
2019-01-13T04:40:40.916Z,7.48
2019-01-13T04:43:08.937Z,7.50
2019-01-13T04:45:36.870Z,7.51
2019-01-13T04:48:04.883Z,7.52
2019-01-13T04:50:32.869Z,7.56
2019-01-13T04:53:00.874Z,7.57
2019-01-13T04:55:29.982Z,7.58
2019-01-13T04:57:57.980Z,7.60
2019-01-13T05:00:25.996Z,7.61
2019-01-13T05:02:54.004Z,7.63
2019-01-13T05:05:22.000Z,7.63
2019-01-13T05:07:50.008Z,7.64
2019-01-13T05:10:19.457Z,7.65
2019-01-13T05:12:47.516Z,7.66
2019-01-13T05:15:16.256Z,7.69
2019-01-13T05:17:44.311Z,7.72
2019-01-13T05:20:17.290Z,7.72
2019-01-13T05:22:45.465Z,7.72
2019-01-13T05:25:13.813Z,7.72
2019-01-13T05:27:41.821Z,7.72
2019-01-13T05:30:18.807Z,7.71
2019-01-13T05:32:47.945Z,7.73
2019-01-13T05:35:15.990Z,7.74
2019-01-13T05:37:44.099Z,7.75
2019-01-13T05:40:15.747Z,7.74
2019-01-13T05:42:43.766Z,7.76
2019-01-13T05:45:14.759Z,7.77
2019-01-13T05:47:42.945Z,7.79
2019-01-13T05:50:14.041Z,7.77
2019-01-13T05:52:43.513Z,7.76
2019-01-13T05:55:11.991Z,7.75
2019-01-13T05:57:39.956Z,7.76
2019-01-13T06:00:13.622Z,7.76
2019-01-13T06:02:41.591Z,7.76
2019-01-13T06:05:09.589Z,7.77
2019-01-13T06:07:37.588Z,7.76
2019-01-13T06:10:07.906Z,7.75
2019-01-13T06:12:35.902Z,7.75
2019-01-13T06:15:05.596Z,7.75
2019-01-13T06:17:33.572Z,7.76
2019-01-13T06:20:01.573Z,7.77
2019-01-13T06:22:29.579Z,7.79
2019-01-13T06:24:57.552Z,7.79
2019-01-13T06:27:25.550Z,7.80
2019-01-13T06:29:53.518Z,7.83
2019-01-13T06:32:21.536Z,7.83
2019-01-13T06:34:49.540Z,7.85
2019-01-13T06:37:17.519Z,7.86
2019-01-13T06:39:45.494Z,7.87
2019-01-13T06:42:13.511Z,7.88
2019-01-13T06:44:41.514Z,7.91
2019-01-13T06:47:11.098Z,7.91
2019-01-13T06:49:39.179Z,7.92
2019-01-13T06:52:07.181Z,7.94
2019-01-13T06:54:35.170Z,7.97
2019-01-13T06:57:03.257Z,7.98
2019-01-13T06:59:31.262Z,7.99
2019-01-13T07:02:03.295Z,7.98
2019-01-13T07:04:29.152Z,7.97
2019-01-13T07:06:57.148Z,7.97
2019-01-13T07:09:25.120Z,7.96
2019-01-13T07:11:53.152Z,7.96
2019-01-13T07:14:21.138Z,7.96
2019-01-13T07:16:49.132Z,7.96
2019-01-13T07:19:17.135Z,7.99
2019-01-13T07:21:45.120Z,7.98
2019-01-13T07:24:13.116Z,7.96
2019-01-13T07:26:41.096Z,7.95
2019-01-13T07:29:09.090Z,7.96
2019-01-13T07:31:38.163Z,7.95
2019-01-13T07:34:06.132Z,7.95
2019-01-13T07:36:34.110Z,7.97
2019-01-13T07:39:03.962Z,7.97
2019-01-13T07:41:31.950Z,7.99
2019-01-13T07:43:59.964Z,7.99
2019-01-13T07:46:27.958Z,7.98
2019-01-13T07:48:56.417Z,7.99
2019-01-13T07:51:24.520Z,8.00
2019-01-13T07:53:52.529Z,7.99
2019-01-13T07:56:20.570Z,7.98
2019-01-13T07:58:48.546Z,7.96
2019-01-13T08:01:16.390Z,7.97
2019-01-13T08:03:44.487Z,7.97
2019-01-13T08:06:12.904Z,7.98
2019-01-13T08:08:41.201Z,8.01
2019-01-13T08:11:10.351Z,8.02
2019-01-13T08:13:38.360Z,8.04
2019-01-13T08:16:08.201Z,8.05
2019-01-13T08:18:36.425Z,8.07
2019-01-13T08:21:04.419Z,8.08
2019-01-13T08:23:32.473Z,8.11
2019-01-13T08:26:00.501Z,8.13
2019-01-13T08:28:28.552Z,8.15
2019-01-13T08:30:56.496Z,8.17
2019-01-13T08:33:24.989Z,8.19
2019-01-13T08:35:53.488Z,8.21
2019-01-13T08:38:21.499Z,8.20
2019-01-13T08:40:49.460Z,8.20
2019-01-13T08:43:17.253Z,8.20
2019-01-13T08:45:50.238Z,8.20
2019-01-13T08:48:15.444Z,8.20
2019-01-13T08:50:43.417Z,8.20
2019-01-13T08:53:11.450Z,8.23
2019-01-13T08:55:39.479Z,8.24
2019-01-13T08:58:07.460Z,8.23
2019-01-13T09:00:35.430Z,8.21
2019-01-13T09:03:06.503Z,8.23
2019-01-13T09:05:34.549Z,8.24
2019-01-13T09:08:03.480Z,8.23
2019-01-13T09:10:31.802Z,8.24
2019-01-13T09:12:59.799Z,8.28
2019-01-13T09:15:27.915Z,8.30
2019-01-13T09:17:56.017Z,8.30
2019-01-13T09:20:27.137Z,8.33
2019-01-13T09:22:57.975Z,8.30
2019-01-13T09:25:28.357Z,8.30
2019-01-13T09:27:56.446Z,8.29
2019-01-13T09:30:26.964Z,8.30
2019-01-13T09:32:54.933Z,8.28
2019-01-13T09:35:23.693Z,8.27
2019-01-13T09:37:53.066Z,8.27
2019-01-13T09:40:31.004Z,8.24
2019-01-13T09:43:01.909Z,8.24
2019-01-13T09:45:30.011Z,8.21
2019-01-13T09:47:58.048Z,8.21
2019-01-13T09:50:26.374Z,8.20
2019-01-13T09:52:54.354Z,8.20
2019-01-13T09:55:24.257Z,8.17
2019-01-13T09:57:52.858Z,8.17
2019-01-13T10:00:30.178Z,8.18
2019-01-13T10:02:58.263Z,8.17
2019-01-13T10:05:26.391Z,8.18
2019-01-13T10:07:54.341Z,8.18
2019-01-13T10:10:22.340Z,8.17
2019-01-13T10:12:50.489Z,8.16
2019-01-13T10:15:20.268Z,8.16
2019-01-13T10:17:48.380Z,8.16
2019-01-13T10:20:16.516Z,8.16
2019-01-13T10:22:44.619Z,8.17
2019-01-13T10:25:13.076Z,8.17
2019-01-13T10:27:42.146Z,8.17
2019-01-13T10:30:14.979Z,8.17
2019-01-13T10:32:44.032Z,8.14
2019-01-13T10:35:12.352Z,8.15
2019-01-13T10:37:40.531Z,8.17
2019-01-13T10:40:12.996Z,8.19
2019-01-13T10:42:41.045Z,8.19
2019-01-13T10:45:10.369Z,8.21
2019-01-13T10:47:38.445Z,8.25
2019-01-13T10:50:10.632Z,8.26
2019-01-13T10:52:38.614Z,8.28
2019-01-13T10:55:06.939Z,8.29
2019-01-13T10:57:34.956Z,8.33
2019-01-13T11:00:07.621Z,8.33
2019-01-13T11:02:35.603Z,8.35
2019-01-13T11:05:04.379Z,8.37
2019-01-13T11:07:33.441Z,8.37
2019-01-13T11:10:04.327Z,8.39
2019-01-13T11:12:32.404Z,8.43
2019-01-13T11:15:00.820Z,8.45
2019-01-13T11:17:28.861Z,8.46
2019-01-13T11:19:56.891Z,8.46
2019-01-13T11:22:24.916Z,8.47
2019-01-13T11:24:53.592Z,8.48
2019-01-13T11:27:22.026Z,8.50
2019-01-13T11:29:50.099Z,8.51
2019-01-13T11:32:21.216Z,8.52
2019-01-13T11:34:49.353Z,8.55
2019-01-13T11:37:17.362Z,8.57
2019-01-13T11:39:45.433Z,8.60
2019-01-13T11:42:13.698Z,8.61
2019-01-13T11:44:42.035Z,8.66
2019-01-13T11:47:16.239Z,8.66
2019-01-13T11:49:45.065Z,8.68
2019-01-13T11:52:13.524Z,8.71
2019-01-13T11:54:41.699Z,8.72
2019-01-13T11:57:09.759Z,8.75
2019-01-13T11:59:37.941Z,8.78
2019-01-13T12:02:06.359Z,8.81
2019-01-13T12:04:34.447Z,8.83
2019-01-13T12:07:02.406Z,8.87
2019-01-13T12:09:30.607Z,8.88
2019-01-13T12:12:07.572Z,8.91
2019-01-13T12:14:35.747Z,8.94
2019-01-13T12:17:03.740Z,8.95
2019-01-13T12:19:31.814Z,8.97
2019-01-13T12:22:00.043Z,8.99
2019-01-13T12:24:37.233Z,9.01
2019-01-13T12:27:05.492Z,9.03
2019-01-13T12:29:33.891Z,9.05
2019-01-13T12:32:01.900Z,9.07
2019-01-13T12:34:30.326Z,9.09
2019-01-13T12:36:58.300Z,9.11
2019-01-13T12:39:26.636Z,9.15
2019-01-13T12:42:01.231Z,9.17
2019-01-13T12:44:30.853Z,9.18
2019-01-13T12:47:00.091Z,9.18
2019-01-13T12:49:28.389Z,9.20
2019-01-13T12:51:56.570Z,9.21
2019-01-13T12:54:24.862Z,9.22
2019-01-13T12:56:52.831Z,9.24
2019-01-13T12:59:21.005Z,9.26
2019-01-13T13:01:49.094Z,9.28
2019-01-13T13:04:30.436Z,9.32
2019-01-13T13:07:08.212Z,9.34
2019-01-13T13:09:36.378Z,9.38
2019-01-13T13:12:04.546Z,9.38
2019-01-13T13:14:32.536Z,9.40
2019-01-13T13:17:00.748Z,9.41
2019-01-13T13:19:28.918Z,9.45
2019-01-13T13:21:57.355Z,9.48
2019-01-13T13:24:25.436Z,9.49
2019-01-13T13:26:53.557Z,9.51
2019-01-13T13:29:22.037Z,9.55
2019-01-13T13:31:50.194Z,9.57
2019-01-13T13:34:26.667Z,9.59
2019-01-13T13:36:54.814Z,9.63
2019-01-13T13:39:31.671Z,9.64
2019-01-13T13:41:59.793Z,9.67
2019-01-13T13:44:27.778Z,9.69
2019-01-13T13:46:55.959Z,9.71
2019-01-13T13:49:24.015Z,9.73
2019-01-13T13:51:55.249Z,9.75
2019-01-13T13:54:23.338Z,9.79
2019-01-13T13:56:51.735Z,9.82
2019-01-13T13:59:19.885Z,9.83
2019-01-13T14:01:47.897Z,9.84
2019-01-13T14:04:15.934Z,9.84
2019-01-13T14:06:43.962Z,9.85
2019-01-13T14:09:20.383Z,9.85
2019-01-13T14:11:48.745Z,9.87
2019-01-13T14:14:16.970Z,9.89
2019-01-13T14:16:44.997Z,9.88
2019-01-13T14:19:13.098Z,9.89
2019-01-13T14:21:41.217Z,9.91
2019-01-13T14:24:09.315Z,9.91
2019-01-13T14:26:37.570Z,9.88
2019-01-13T14:29:05.510Z,9.89
2019-01-13T14:31:33.529Z,9.90
2019-01-13T14:34:01.597Z,9.90
2019-01-13T14:36:29.617Z,9.90
2019-01-13T14:38:57.642Z,9.90
2019-01-13T14:41:25.747Z,9.91
2019-01-13T14:43:54.355Z,9.93
2019-01-13T14:46:22.414Z,9.94
2019-01-13T14:48:50.774Z,9.96
2019-01-13T14:51:18.890Z,9.94
2019-01-13T14:53:46.734Z,9.93
2019-01-13T14:56:14.983Z,9.90
2019-01-13T14:58:42.943Z,9.92
2019-01-13T15:01:10.960Z,9.93
2019-01-13T15:03:38.826Z,9.92
2019-01-13T15:06:06.895Z,9.90
2019-01-13T15:08:34.960Z,9.85
2019-01-13T15:11:03.127Z,9.83
2019-01-13T15:13:32.486Z,9.81
2019-01-13T15:16:01.076Z,9.82
2019-01-13T15:18:29.383Z,9.81
2019-01-13T15:20:57.406Z,9.79
2019-01-13T15:23:25.635Z,9.80
2019-01-13T15:26:01.652Z,9.78
2019-01-13T15:28:29.697Z,9.76
2019-01-13T15:30:57.978Z,9.76
2019-01-13T15:33:26.467Z,9.74
2019-01-13T15:35:55.064Z,9.75
2019-01-13T15:38:23.189Z,9.74
2019-01-13T15:40:51.503Z,9.73
2019-01-13T15:43:24.034Z,9.71
2019-01-13T15:45:54.418Z,9.69
2019-01-13T15:48:22.507Z,9.71
2019-01-13T15:50:50.544Z,9.72
2019-01-13T15:53:18.890Z,9.72
2019-01-13T15:55:54.248Z,9.73
2019-01-13T15:58:22.185Z,9.74
2019-01-13T16:00:50.393Z,9.75
2019-01-13T16:03:18.530Z,9.75
2019-01-13T16:05:46.796Z,9.78
2019-01-13T16:08:14.968Z,9.79
2019-01-13T16:10:43.405Z,9.81
2019-01-13T16:34:29.509Z,9.92
2019-01-13T16:36:58.037Z,9.87
2019-01-13T16:39:26.323Z,9.88
2019-01-13T16:41:55.752Z,9.90
2019-01-13T16:44:23.985Z,9.91
2019-01-13T16:46:52.077Z,9.94
2019-01-13T16:49:20.159Z,9.94
2019-01-13T16:51:48.168Z,9.92
2019-01-13T16:54:16.406Z,9.92
2019-01-13T16:57:05.307Z,9.93
2019-01-13T16:59:33.516Z,9.92
2019-01-13T17:02:01.513Z,9.93
2019-01-13T17:04:29.727Z,9.92
2019-01-13T17:06:57.743Z,9.92
2019-01-13T17:09:25.937Z,9.94
2019-01-13T17:11:55.411Z,9.96
2019-01-13T17:14:23.502Z,9.96
2019-01-13T17:16:51.516Z,9.95
2019-01-13T17:19:19.896Z,9.96
2019-01-13T17:21:48.102Z,9.95
2019-01-13T17:24:16.173Z,9.97
2019-01-13T17:27:01.351Z,9.97
2019-01-13T17:29:30.864Z,9.97
2019-01-13T17:31:59.179Z,9.98
2019-01-13T17:34:27.284Z,9.96
2019-01-13T17:36:55.300Z,9.97
2019-01-13T17:39:23.532Z,9.97
2019-01-13T17:41:51.790Z,9.95
2019-01-13T17:44:20.026Z,9.95
2019-01-13T17:46:48.374Z,9.97
2019-01-13T17:49:16.715Z,9.97
2019-01-13T17:51:45.155Z,9.98
2019-01-13T17:54:13.157Z,9.98
2019-01-13T17:56:41.538Z,10.00
2019-01-13T17:59:15.300Z,10.01
2019-01-13T18:01:49.097Z,10.03
2019-01-13T18:04:17.254Z,10.02
2019-01-13T18:06:45.348Z,10.00
2019-01-13T18:09:13.502Z,9.99
2019-01-13T18:11:41.705Z,10.01
2019-01-13T18:14:09.971Z,10.02
2019-01-13T18:16:38.435Z,10.03
2019-01-13T18:19:06.792Z,10.05
2019-01-13T18:21:35.130Z,10.05
2019-01-13T18:24:03.229Z,10.07
2019-01-13T18:26:31.273Z,10.10
2019-01-13T18:29:09.586Z,10.10
2019-01-13T18:31:37.775Z,10.11
2019-01-13T18:34:05.976Z,10.10
2019-01-13T18:36:34.397Z,10.13
2019-01-13T18:39:06.090Z,10.13
2019-01-13T18:41:34.539Z,10.15
2019-01-13T18:44:02.911Z,10.15
2019-01-13T18:46:31.002Z,10.16
2019-01-13T18:49:08.208Z,10.18
2019-01-13T18:51:36.368Z,10.17
2019-01-13T18:54:04.823Z,10.16
2019-01-13T18:56:39.495Z,10.16
2019-01-13T18:59:09.238Z,10.16
2019-01-13T19:01:39.149Z,10.15
2019-01-13T19:04:07.293Z,10.14
2019-01-13T19:06:35.483Z,10.16
2019-01-13T19:09:09.165Z,10.17
2019-01-13T19:11:42.858Z,10.18
2019-01-13T19:14:57.800Z,10.19
2019-01-13T19:17:27.036Z,10.22
2019-01-13T19:25:46.611Z,10.29
2019-01-13T19:28:15.181Z,10.28
2019-01-13T19:30:43.439Z,10.29
2019-01-13T19:33:12.307Z,10.32
2019-01-13T19:35:40.406Z,10.34
2019-01-13T19:38:08.511Z,10.35
2019-01-13T19:40:36.975Z,10.36
2019-01-13T19:43:18.137Z,10.38
2019-01-13T19:45:46.472Z,10.42
2019-01-13T19:48:14.978Z,10.42
2019-01-13T19:50:43.063Z,10.43
2019-01-13T19:53:11.332Z,10.43
2019-01-13T19:55:39.446Z,10.43
2019-01-13T19:58:07.570Z,10.45
2019-01-13T20:00:36.650Z,10.47
2019-01-13T20:03:06.218Z,10.47
2019-01-13T20:05:34.581Z,10.48
2019-01-13T20:08:03.661Z,10.49
2019-01-13T20:10:32.341Z,10.50
2019-01-13T20:13:00.388Z,10.52
2019-01-13T20:15:28.704Z,10.51
2019-01-13T20:18:11.126Z,10.53
2019-01-13T20:20:39.229Z,10.51
2019-01-13T20:23:07.257Z,10.50
2019-01-13T20:25:35.371Z,10.52
2019-01-13T20:28:03.541Z,10.53
2019-01-13T20:30:33.102Z,10.54
2019-01-13T20:33:02.480Z,10.55
2019-01-13T20:35:30.561Z,10.55
2019-01-13T20:37:59.562Z,10.55
2019-01-13T20:40:29.077Z,10.54
2019-01-13T20:42:57.096Z,10.55
2019-01-13T20:45:35.129Z,10.55
2019-01-13T20:48:03.226Z,10.59
2019-01-13T20:50:31.465Z,10.61
2019-01-13T20:52:59.644Z,10.64
2019-01-13T20:55:27.727Z,10.68
2019-01-13T20:57:55.855Z,10.69
2019-01-13T21:00:25.593Z,10.73
2019-01-13T21:02:53.989Z,10.76
2019-01-13T21:05:26.630Z,10.79
2019-01-13T21:07:52.336Z,10.82
2019-01-13T21:10:20.497Z,10.87
2019-01-13T21:12:48.617Z,10.90
2019-01-13T21:15:21.151Z,10.92
2019-01-13T21:17:49.204Z,10.96
2019-01-13T21:20:17.661Z,11.00
2019-01-13T21:22:45.690Z,11.03
2019-01-13T21:25:14.583Z,11.05
2019-01-13T21:27:43.017Z,11.07
2019-01-13T21:30:16.531Z,11.09
2019-01-13T21:32:44.596Z,11.10
2019-01-13T21:35:13.670Z,11.11
2019-01-13T21:37:41.721Z,11.13
2019-01-13T21:40:10.470Z,11.15
2019-01-13T21:42:38.488Z,11.17
2019-01-13T21:45:09.705Z,11.19
2019-01-13T21:47:38.817Z,11.17
2019-01-13T21:50:10.292Z,11.19
2019-01-13T21:52:38.417Z,11.20
2019-01-13T21:55:08.104Z,11.19
2019-01-13T21:57:36.138Z,11.21
2019-01-13T22:00:15.923Z,11.21
2019-01-13T22:02:44.041Z,11.24
2019-01-13T22:05:12.297Z,11.25
2019-01-13T22:07:40.299Z,11.26
2019-01-13T22:10:12.649Z,11.27
2019-01-13T22:12:40.669Z,11.27
2019-01-13T22:15:11.111Z,11.27
2019-01-13T22:17:39.131Z,11.26
2019-01-13T22:20:10.750Z,11.26
2019-01-13T22:22:39.105Z,11.25
2019-01-13T22:25:07.606Z,11.22
2019-01-13T22:27:36.772Z,11.21
2019-01-13T22:30:08.870Z,11.19
2019-01-13T22:32:37.286Z,11.19
2019-01-13T22:35:05.324Z,11.18
2019-01-13T22:37:33.337Z,11.17
2019-01-13T22:40:01.396Z,11.18
2019-01-13T22:42:29.450Z,11.17
2019-01-13T22:44:57.476Z,11.16
2019-01-13T22:47:25.534Z,11.14
2019-01-13T22:49:53.580Z,11.15
2019-01-13T22:52:21.632Z,11.13
2019-01-13T22:54:49.618Z,11.13
2019-01-13T22:57:17.682Z,11.12
2019-01-13T22:59:45.707Z,11.10
2019-01-13T23:02:13.764Z,11.06
2019-01-13T23:04:41.811Z,11.01
2019-01-13T23:07:09.844Z,10.98
2019-01-13T23:09:37.872Z,10.96
2019-01-13T23:12:06.244Z,10.93
2019-01-13T23:14:34.278Z,10.91
2019-01-13T23:17:02.303Z,10.89
2019-01-13T23:19:30.332Z,10.85
2019-01-13T23:21:59.513Z,10.82
2019-01-13T23:24:27.626Z,10.78
2019-01-13T23:26:55.719Z,10.74
2019-01-13T23:29:23.812Z,10.70
2019-01-13T23:31:51.888Z,10.68
2019-01-13T23:34:20.192Z,10.64
2019-01-13T23:36:48.224Z,10.60
2019-01-13T23:39:16.269Z,10.56
2019-01-13T23:41:44.298Z,10.53
2019-01-13T23:44:12.316Z,10.52
2019-01-13T23:46:40.349Z,10.51
2019-01-13T23:49:08.862Z,10.50
2019-01-13T23:51:36.955Z,10.50
2019-01-13T23:54:05.036Z,10.49
2019-01-13T23:56:33.077Z,10.48
2019-01-13T23:59:01.146Z,10.47
